createdAt,value
2023-01-31T00:01:53.880Z,5.20
2023-01-31T00:04:21.595Z,4.40
2023-01-31T00:06:52.150Z,4.90
2023-01-31T00:09:20.537Z,4.63
2023-01-31T00:11:48.132Z,7.28
2023-01-31T00:14:19.689Z,6.35
2023-01-31T00:16:47.479Z,5.88
2023-01-31T00:19:15.140Z,4.82
2023-01-31T00:21:43.887Z,6.45
2023-01-31T00:24:15.112Z,5.40
2023-01-31T00:26:43.228Z,7.18
2023-01-31T00:29:11.417Z,5.40
2023-01-31T00:31:39.975Z,6.18
2023-01-31T00:34:07.991Z,6.05
2023-01-31T00:36:37.689Z,6.90
2023-01-31T00:39:07.469Z,5.30
2023-01-31T00:41:38.556Z,5.60
2023-01-31T00:44:07.726Z,5.70
2023-01-31T00:46:36.613Z,6.57
2023-01-31T00:49:04.909Z,5.85
2023-01-31T00:51:32.578Z,5.90
2023-01-31T00:54:00.721Z,6.07
2023-01-31T00:56:28.618Z,6.18
2023-01-31T00:58:57.619Z,5.10
2023-01-31T01:01:27.467Z,4.40
2023-01-31T01:03:56.060Z,4.20
2023-01-31T01:06:24.418Z,5.13
2023-01-31T01:08:52.566Z,4.47
2023-01-31T01:11:23.071Z,4.65
2023-01-31T01:13:51.414Z,4.75
2023-01-31T01:16:22.473Z,4.25
2023-01-31T01:18:51.042Z,4.95
2023-01-31T01:21:19.569Z,4.18
2023-01-31T01:23:48.201Z,3.75
2023-01-31T01:26:17.384Z,4.00
2023-01-31T01:28:45.769Z,5.38
2023-01-31T01:31:16.229Z,4.30
2023-01-31T01:33:46.428Z,3.83
2023-01-31T01:36:17.351Z,3.60
2023-01-31T01:38:46.427Z,5.20
2023-01-31T01:41:15.254Z,6.68
2023-01-31T01:43:45.307Z,4.95
2023-01-31T01:46:16.661Z,5.50
2023-01-31T01:48:49.553Z,5.50
2023-01-31T01:51:19.423Z,4.60
2023-01-31T01:53:51.384Z,5.03
2023-01-31T01:56:27.275Z,7.75
2023-01-31T01:59:01.314Z,5.70
2023-01-31T02:01:33.347Z,7.20
2023-01-31T02:04:03.782Z,5.03
2023-01-31T02:06:31.577Z,4.53
2023-01-31T02:09:00.056Z,6.63
2023-01-31T02:11:30.845Z,5.15
2023-01-31T02:14:02.419Z,6.35
2023-01-31T02:16:30.886Z,5.00
2023-01-31T02:18:59.299Z,6.93
2023-01-31T02:22:02.528Z,5.00
2023-01-31T02:24:56.867Z,4.80
2023-01-31T02:27:45.240Z,6.22
2023-01-31T02:30:46.075Z,5.00
2023-01-31T02:33:24.914Z,7.28
2023-01-31T02:36:03.883Z,5.40
2023-01-31T02:38:43.185Z,4.50
2023-01-31T02:41:18.897Z,3.97
2023-01-31T02:44:11.473Z,4.90
2023-01-31T02:46:50.232Z,4.55
2023-01-31T02:49:35.473Z,4.53
2023-01-31T02:52:21.725Z,5.22
2023-01-31T02:55:17.911Z,4.47
2023-01-31T02:57:48.585Z,5.10
2023-01-31T03:00:17.430Z,4.63
2023-01-31T03:02:45.294Z,4.60
2023-01-31T03:05:16.544Z,4.07
2023-01-31T03:07:47.941Z,4.50
2023-01-31T03:10:27.700Z,8.40
2023-01-31T03:13:08.573Z,5.78
2023-01-31T03:16:03.803Z,5.70
2023-01-31T03:18:38.100Z,6.60
2023-01-31T03:21:11.458Z,5.00
2023-01-31T03:23:41.692Z,4.85
2023-01-31T03:26:10.616Z,5.30
2023-01-31T03:28:42.357Z,6.93
2023-01-31T03:31:18.762Z,6.40
2023-01-31T03:33:50.976Z,8.95
2023-01-31T03:36:29.688Z,8.18
2023-01-31T03:39:15.678Z,6.40
2023-01-31T03:41:58.416Z,6.25
2023-01-31T03:44:34.872Z,6.28
2023-01-31T03:47:06.968Z,12.55
2023-01-31T03:49:36.568Z,7.47
2023-01-31T03:52:08.941Z,5.13
2023-01-31T03:54:42.459Z,6.85
2023-01-31T03:57:15.724Z,6.70
2023-01-31T03:59:48.319Z,5.40
2023-01-31T04:02:18.234Z,5.10
2023-01-31T04:04:52.014Z,4.30
2023-01-31T04:07:21.283Z,5.30
2023-01-31T04:09:49.131Z,5.57
2023-01-31T04:12:17.360Z,4.50
2023-01-31T04:14:45.348Z,5.05
2023-01-31T04:17:13.393Z,4.75
2023-01-31T04:19:41.080Z,5.30
2023-01-31T04:22:08.777Z,5.75
2023-01-31T04:24:37.860Z,4.95
2023-01-31T04:27:05.544Z,6.20
2023-01-31T04:29:33.321Z,4.30
2023-01-31T04:32:01.130Z,5.35
2023-01-31T04:34:28.890Z,5.20
2023-01-31T04:36:56.629Z,5.70
2023-01-31T04:39:24.323Z,4.90
2023-01-31T04:41:53.349Z,5.80
2023-01-31T04:44:21.048Z,5.25
2023-01-31T04:46:48.779Z,5.50
2023-01-31T04:49:16.586Z,6.43
2023-01-31T04:51:44.256Z,6.55
2023-01-31T04:54:12.202Z,10.60
2023-01-31T04:56:39.935Z,5.30
2023-01-31T04:59:09.019Z,6.22
2023-01-31T05:01:36.724Z,10.02
2023-01-31T05:04:04.768Z,8.38
2023-01-31T05:06:32.818Z,10.13
2023-01-31T05:09:01.442Z,5.68
2023-01-31T05:11:29.398Z,5.80
2023-01-31T05:13:57.252Z,5.63
2023-01-31T05:16:26.350Z,6.15
2023-01-31T05:18:54.095Z,4.90
2023-01-31T05:21:21.869Z,6.20
2023-01-31T05:23:49.613Z,5.90
2023-01-31T05:26:17.484Z,5.38
2023-01-31T05:28:45.268Z,4.85
2023-01-31T05:31:14.124Z,5.32
2023-01-31T05:33:43.225Z,5.90
2023-01-31T05:36:10.918Z,5.07
2023-01-31T05:38:38.543Z,6.70
2023-01-31T05:41:06.621Z,6.65
2023-01-31T05:43:36.310Z,7.20
2023-01-31T05:46:04.616Z,6.40
2023-01-31T05:48:32.301Z,5.40
2023-01-31T05:51:01.321Z,7.18
2023-01-31T05:53:29.040Z,7.63
2023-01-31T05:55:56.761Z,7.30
2023-01-31T05:58:24.448Z,7.82
2023-01-31T06:00:55.816Z,7.82
2023-01-31T06:03:23.581Z,8.55
2023-01-31T06:05:51.340Z,7.25
2023-01-31T06:08:20.501Z,6.47
2023-01-31T06:10:48.215Z,6.40
2023-01-31T06:13:16.040Z,9.95
2023-01-31T06:15:44.608Z,9.00
2023-01-31T06:18:13.220Z,5.70
2023-01-31T06:20:40.994Z,6.75
2023-01-31T06:23:08.656Z,6.30
2023-01-31T06:25:37.753Z,7.25
2023-01-31T06:28:05.922Z,8.48
2023-01-31T06:30:34.024Z,8.57
2023-01-31T06:33:02.374Z,9.25
2023-01-31T06:35:30.656Z,7.72
2023-01-31T06:37:58.269Z,7.40
2023-01-31T06:40:26.152Z,6.60
2023-01-31T06:42:55.357Z,6.63
2023-01-31T06:45:23.244Z,8.95
2023-01-31T06:47:50.992Z,7.40
2023-01-31T06:50:19.379Z,7.30
2023-01-31T06:52:47.913Z,8.90
2023-01-31T06:55:16.126Z,8.38
2023-01-31T06:57:47.684Z,7.70
2023-01-31T07:00:19.455Z,8.00
2023-01-31T07:02:47.477Z,7.10
2023-01-31T07:05:15.729Z,9.45
2023-01-31T07:07:43.432Z,7.28
2023-01-31T07:10:12.812Z,8.25
2023-01-31T07:12:40.800Z,7.95
2023-01-31T07:15:10.022Z,8.63
2023-01-31T07:17:39.138Z,7.25
2023-01-31T07:20:08.214Z,7.65
2023-01-31T07:22:35.896Z,8.48
2023-01-31T07:25:03.620Z,9.48
2023-01-31T07:27:31.293Z,5.88
2023-01-31T07:29:58.962Z,7.13
2023-01-31T07:32:31.038Z,7.43
2023-01-31T07:35:00.206Z,5.57
2023-01-31T07:37:27.968Z,6.15
2023-01-31T07:39:55.773Z,6.32
2023-01-31T07:42:23.488Z,6.68
2023-01-31T07:44:51.238Z,6.40
2023-01-31T07:47:18.927Z,7.63
2023-01-31T07:49:46.681Z,7.82
2023-01-31T07:52:15.733Z,6.65
2023-01-31T07:54:43.380Z,6.22
2023-01-31T07:57:11.164Z,7.20
2023-01-31T07:59:38.804Z,5.20
2023-01-31T08:02:33.781Z,6.93
2023-01-31T08:05:01.743Z,6.55
2023-01-31T08:07:31.135Z,5.90
2023-01-31T08:09:58.765Z,6.10
2023-01-31T08:12:26.405Z,6.32
2023-01-31T08:14:54.043Z,8.88
2023-01-31T08:17:21.835Z,5.95
2023-01-31T08:19:49.490Z,5.75
2023-01-31T08:22:17.127Z,5.57
2023-01-31T08:24:46.142Z,5.85
2023-01-31T08:27:14.070Z,4.93
2023-01-31T08:29:41.764Z,5.20
2023-01-31T08:32:09.494Z,5.65
2023-01-31T08:34:37.123Z,6.35
2023-01-31T08:37:04.832Z,5.15
2023-01-31T08:39:32.478Z,6.78
2023-01-31T08:42:01.820Z,6.45
2023-01-31T08:44:29.499Z,6.18
2023-01-31T08:46:59.129Z,6.53
2023-01-31T08:49:26.876Z,6.65
2023-01-31T08:51:54.493Z,4.70
2023-01-31T08:54:22.196Z,6.00
2023-01-31T08:56:49.902Z,4.90
2023-01-31T08:59:18.938Z,5.38
2023-01-31T09:01:46.844Z,6.45
2023-01-31T09:04:14.654Z,5.38
2023-01-31T09:06:42.393Z,5.10
2023-01-31T09:09:10.775Z,12.07
2023-01-31T09:11:39.618Z,4.80
2023-01-31T09:14:07.722Z,4.80
2023-01-31T09:16:36.749Z,4.10
2023-01-31T09:19:04.439Z,4.65
2023-01-31T09:21:32.533Z,4.72
2023-01-31T09:24:02.322Z,4.00
2023-01-31T09:26:30.922Z,4.30
2023-01-31T09:28:59.078Z,4.97
2023-01-31T09:31:26.873Z,4.10
2023-01-31T09:33:56.237Z,3.10
2023-01-31T09:36:25.553Z,4.97
2023-01-31T09:38:55.910Z,4.72
2023-01-31T09:41:27.631Z,4.53
2023-01-31T09:43:59.398Z,4.20
2023-01-31T09:46:32.275Z,2.80
2023-01-31T09:49:05.979Z,3.50
2023-01-31T09:51:35.581Z,3.50
2023-01-31T09:54:05.553Z,4.70
2023-01-31T09:56:41.818Z,5.05
2023-01-31T09:59:20.318Z,4.70
2023-01-31T10:01:58.161Z,3.60
2023-01-31T10:04:43.997Z,3.85
2023-01-31T10:07:16.568Z,3.88
2023-01-31T10:09:47.601Z,4.75
2023-01-31T10:12:19.590Z,4.00
2023-01-31T10:14:51.275Z,4.28
2023-01-31T10:17:24.002Z,4.53
2023-01-31T10:19:56.128Z,4.38
2023-01-31T10:22:30.233Z,3.35
2023-01-31T10:25:03.374Z,4.95
2023-01-31T10:27:44.474Z,4.00
2023-01-31T10:30:19.027Z,3.60
2023-01-31T10:32:52.530Z,3.42
2023-01-31T10:35:27.907Z,4.22
2023-01-31T10:38:01.512Z,4.53
2023-01-31T10:40:34.902Z,3.85
2023-01-31T10:43:13.201Z,3.65
2023-01-31T10:45:40.953Z,3.33
2023-01-31T10:48:16.997Z,3.10
2023-01-31T10:50:59.001Z,3.70
2023-01-31T10:53:43.929Z,3.60
2023-01-31T10:56:18.054Z,3.38
2023-01-31T10:58:45.786Z,3.63
2023-01-31T11:01:15.238Z,3.88
2023-01-31T11:03:49.563Z,3.83
2023-01-31T11:06:19.174Z,4.03
2023-01-31T11:08:48.860Z,2.95
2023-01-31T11:11:18.709Z,3.72
2023-01-31T11:13:58.559Z,3.40
2023-01-31T11:16:30.964Z,3.40
2023-01-31T11:19:00.528Z,4.00
2023-01-31T11:21:32.034Z,3.78
2023-01-31T11:24:04.786Z,3.88
2023-01-31T11:26:35.424Z,3.75
2023-01-31T11:29:09.240Z,3.13
2023-01-31T11:31:41.509Z,3.15
2023-01-31T11:34:21.673Z,3.45
2023-01-31T11:36:50.988Z,3.45
2023-01-31T11:39:31.624Z,3.00
2023-01-31T11:42:07.087Z,3.22
2023-01-31T11:44:34.834Z,3.90
2023-01-31T11:47:05.344Z,3.30
2023-01-31T11:49:36.087Z,4.07
2023-01-31T11:52:16.164Z,3.03
2023-01-31T11:54:48.499Z,3.55
2023-01-31T11:57:18.171Z,3.03
2023-01-31T11:59:46.021Z,2.65
2023-01-31T12:02:27.767Z,3.15
2023-01-31T12:04:55.996Z,3.13
2023-01-31T12:07:29.001Z,3.65
2023-01-31T12:09:56.993Z,3.20
2023-01-31T12:12:31.149Z,3.35
2023-01-31T12:15:02.592Z,3.35
2023-01-31T12:17:33.158Z,2.95
2023-01-31T12:20:26.962Z,3.80
2023-01-31T12:23:08.255Z,4.38
2023-01-31T12:25:52.936Z,2.80
2023-01-31T12:28:34.712Z,2.42
2023-01-31T12:31:26.431Z,2.58
2023-01-31T12:34:11.173Z,2.40
2023-01-31T12:36:48.330Z,2.42
2023-01-31T12:39:32.383Z,2.00
2023-01-31T12:42:24.256Z,2.15
2023-01-31T12:45:06.581Z,2.88
2023-01-31T12:48:01.010Z,2.28
2023-01-31T12:50:32.372Z,3.50
2023-01-31T12:53:26.112Z,2.30
2023-01-31T12:56:07.329Z,2.63
2023-01-31T12:58:44.734Z,2.80
2023-01-31T13:01:17.013Z,2.95
2023-01-31T13:03:59.852Z,3.05
2023-01-31T13:06:31.521Z,2.33
2023-01-31T13:09:08.318Z,3.05
2023-01-31T13:11:42.875Z,2.78
2023-01-31T13:14:16.344Z,2.58
2023-01-31T13:16:47.365Z,3.47
2023-01-31T13:19:21.319Z,3.20
2023-01-31T13:21:55.474Z,2.50
2023-01-31T13:24:28.012Z,3.08
2023-01-31T13:27:01.860Z,3.08
2023-01-31T13:29:33.384Z,2.80
2023-01-31T13:32:05.324Z,2.67
2023-01-31T13:34:40.830Z,2.83
2023-01-31T13:37:12.441Z,3.05
2023-01-31T13:39:43.940Z,3.45
2023-01-31T13:42:15.922Z,2.63
2023-01-31T13:44:44.499Z,2.92
2023-01-31T13:47:19.695Z,3.00
2023-01-31T13:49:51.557Z,2.72
2023-01-31T13:52:24.820Z,4.35
2023-01-31T13:54:59.141Z,2.92
2023-01-31T13:57:31.241Z,3.10
2023-01-31T14:00:06.392Z,2.90
2023-01-31T14:02:34.455Z,3.00
2023-01-31T14:05:09.255Z,2.95
2023-01-31T14:07:37.366Z,3.30
2023-01-31T14:10:43.383Z,3.47
2023-01-31T14:13:46.030Z,3.17
2023-01-31T14:16:38.676Z,3.00
2023-01-31T14:19:27.304Z,2.72
2023-01-31T14:22:04.586Z,3.70
2023-01-31T14:24:56.908Z,3.78
2023-01-31T14:27:29.428Z,3.05
2023-01-31T14:30:09.400Z,2.13
2023-01-31T14:32:40.856Z,3.17
2023-01-31T14:35:29.265Z,3.20
2023-01-31T14:38:09.505Z,3.22
2023-01-31T14:40:46.726Z,2.90
2023-01-31T14:43:28.948Z,2.80
2023-01-31T14:46:11.352Z,3.00
2023-01-31T14:49:05.744Z,3.08
2023-01-31T14:51:46.342Z,3.50
2023-01-31T14:54:42.602Z,3.40
2023-01-31T14:57:16.543Z,3.05
2023-01-31T14:59:54.764Z,3.83
2023-01-31T15:02:49.085Z,3.10
2023-01-31T15:05:19.991Z,2.85
2023-01-31T15:08:02.930Z,3.63
2023-01-31T15:10:58.903Z,2.97
2023-01-31T15:13:38.445Z,3.38
2023-01-31T15:16:08.734Z,3.92
2023-01-31T15:18:37.084Z,3.55
2023-01-31T15:21:08.760Z,4.43
2023-01-31T15:23:41.484Z,3.25
2023-01-31T15:26:11.468Z,3.60
2023-01-31T15:28:44.334Z,3.42
2023-01-31T15:31:19.300Z,3.45
2023-01-31T15:33:52.216Z,4.72
2023-01-31T15:36:27.490Z,3.13
2023-01-31T15:38:58.256Z,3.35
2023-01-31T15:41:36.431Z,3.63
2023-01-31T15:44:13.546Z,4.47
2023-01-31T15:46:44.212Z,3.72
2023-01-31T15:49:38.665Z,3.15
2023-01-31T15:52:18.093Z,2.95
2023-01-31T15:54:53.440Z,3.70
2023-01-31T15:57:24.654Z,3.00
2023-01-31T15:59:52.653Z,3.72
2023-01-31T16:02:28.717Z,3.42
2023-01-31T16:04:57.060Z,3.33
2023-01-31T16:07:29.342Z,3.60
2023-01-31T16:09:58.808Z,4.03
2023-01-31T16:12:31.073Z,3.22
2023-01-31T16:15:04.813Z,3.95
2023-01-31T16:17:33.178Z,3.80
2023-01-31T16:20:00.971Z,3.40
2023-01-31T16:22:31.156Z,3.15
2023-01-31T16:25:00.532Z,4.03
2023-01-31T16:27:33.652Z,2.92
2023-01-31T16:30:01.759Z,3.33
2023-01-31T16:32:32.012Z,3.50
2023-01-31T16:35:02.159Z,3.10
2023-01-31T16:37:33.922Z,3.35
2023-01-31T16:40:06.338Z,3.35
2023-01-31T16:42:38.655Z,3.17
2023-01-31T16:45:29.105Z,3.33
2023-01-31T16:48:10.410Z,3.63
2023-01-31T16:50:43.301Z,3.45
2023-01-31T16:53:30.283Z,2.95
2023-01-31T16:56:17.573Z,3.45
2023-01-31T16:58:49.210Z,3.40
2023-01-31T17:01:21.166Z,3.55
2023-01-31T17:04:02.840Z,3.53
2023-01-31T17:06:31.444Z,3.42
2023-01-31T17:08:59.409Z,4.13
2023-01-31T17:11:41.693Z,3.63
2023-01-31T17:14:12.037Z,3.55
2023-01-31T17:16:40.491Z,3.97
2023-01-31T17:19:08.210Z,4.30
2023-01-31T17:21:40.313Z,4.20
2023-01-31T17:24:13.366Z,3.95
2023-01-31T17:26:41.494Z,4.07
2023-01-31T17:29:09.286Z,3.10
2023-01-31T17:31:39.432Z,3.00
2023-01-31T17:34:13.805Z,3.38
2023-01-31T17:36:41.670Z,4.05
2023-01-31T17:39:09.481Z,3.42
2023-01-31T17:41:39.142Z,4.07
2023-01-31T17:44:07.226Z,3.70
2023-01-31T17:46:35.992Z,4.05
2023-01-31T17:49:05.115Z,3.42
2023-01-31T17:51:32.897Z,3.65
2023-01-31T17:54:00.775Z,8.38
2023-01-31T17:56:28.623Z,3.70
2023-01-31T17:58:56.309Z,4.00
2023-01-31T18:01:24.200Z,3.75
2023-01-31T18:03:51.964Z,3.85
2023-01-31T18:06:20.957Z,4.15
2023-01-31T18:08:52.361Z,3.78
2023-01-31T18:11:20.829Z,3.80
2023-01-31T18:13:48.576Z,4.05
2023-01-31T18:16:20.706Z,3.63
2023-01-31T18:18:48.506Z,3.60
2023-01-31T18:21:18.595Z,3.50
2023-01-31T18:23:52.092Z,4.07
2023-01-31T18:26:20.785Z,3.70
2023-01-31T18:28:48.992Z,3.05
2023-01-31T18:31:18.453Z,3.88
2023-01-31T18:33:48.175Z,2.25
2023-01-31T18:36:17.716Z,4.30
2023-01-31T18:38:47.217Z,4.13
2023-01-31T18:41:18.556Z,4.35
2023-01-31T18:43:47.584Z,3.75
2023-01-31T18:46:15.339Z,4.50
2023-01-31T18:48:44.008Z,4.20
2023-01-31T18:51:13.873Z,3.47
2023-01-31T18:53:43.718Z,4.50
2023-01-31T18:56:14.150Z,3.95
2023-01-31T18:58:44.612Z,3.45
2023-01-31T19:01:14.907Z,4.10
2023-01-31T19:03:43.955Z,4.60
2023-01-31T19:06:13.735Z,3.17
2023-01-31T19:08:41.702Z,4.90
2023-01-31T19:11:11.639Z,4.88
2023-01-31T19:13:40.076Z,5.22
2023-01-31T19:16:11.532Z,3.80
2023-01-31T19:18:40.036Z,4.03
2023-01-31T19:21:15.037Z,4.57
2023-01-31T19:23:42.936Z,4.85
2023-01-31T19:26:10.782Z,3.38
2023-01-31T19:28:39.365Z,3.80
2023-01-31T19:31:10.316Z,4.75
2023-01-31T19:33:39.209Z,3.67
2023-01-31T19:36:11.175Z,4.05
2023-01-31T19:38:38.971Z,4.28
2023-01-31T19:41:08.171Z,4.13
2023-01-31T19:43:36.054Z,3.92
2023-01-31T19:46:04.000Z,5.07
2023-01-31T19:48:33.299Z,4.45
2023-01-31T19:51:07.910Z,4.32
2023-01-31T19:53:35.853Z,4.10
2023-01-31T19:56:03.924Z,3.85
2023-01-31T19:58:32.177Z,4.30
2023-01-31T20:01:00.053Z,4.30
2023-01-31T20:03:27.833Z,4.20
2023-01-31T20:06:02.310Z,4.00
2023-01-31T20:08:30.878Z,4.35
2023-01-31T20:10:58.758Z,4.30
2023-01-31T20:13:26.786Z,4.07
2023-01-31T20:15:58.696Z,4.55
2023-01-31T20:18:26.376Z,4.00
2023-01-31T20:20:54.499Z,4.97
2023-01-31T20:23:24.156Z,4.07
2023-01-31T20:25:52.477Z,4.90
2023-01-31T20:28:21.103Z,4.47
2023-01-31T20:30:49.703Z,4.45
2023-01-31T20:33:17.449Z,4.35
2023-01-31T20:35:46.093Z,4.75
2023-01-31T20:38:15.477Z,3.95
2023-01-31T20:40:50.074Z,4.93
2023-01-31T20:43:17.828Z,4.82
2023-01-31T20:45:45.783Z,4.15
2023-01-31T20:48:13.564Z,4.18
2023-01-31T20:50:41.401Z,4.05
2023-01-31T20:53:18.373Z,3.10
2023-01-31T20:55:54.508Z,7.90
2023-01-31T20:58:22.265Z,7.35
2023-01-31T21:00:49.917Z,3.63
2023-01-31T21:03:17.842Z,3.70
2023-01-31T21:05:45.549Z,3.60
2023-01-31T21:08:13.247Z,3.50
2023-01-31T21:10:41.648Z,3.40
2023-01-31T21:13:10.761Z,3.22
2023-01-31T21:15:38.568Z,3.17
2023-01-31T21:18:06.352Z,3.53
2023-01-31T21:20:34.030Z,2.65
2023-01-31T21:23:01.724Z,4.13
2023-01-31T21:25:31.344Z,3.88
2023-01-31T21:27:59.094Z,2.33
2023-01-31T21:30:28.244Z,3.67
2023-01-31T21:32:55.943Z,3.20
2023-01-31T21:35:23.891Z,3.55
2023-01-31T21:37:51.928Z,3.65
2023-01-31T21:40:20.725Z,3.60
2023-01-31T21:42:49.530Z,3.00
2023-01-31T21:45:17.367Z,3.45
2023-01-31T21:48:04.055Z,2.90
2023-01-31T21:50:31.756Z,3.38
2023-01-31T21:52:59.597Z,3.85
2023-01-31T21:55:27.291Z,3.70
2023-01-31T21:57:55.008Z,3.10
2023-01-31T22:00:23.398Z,3.00
2023-01-31T22:02:53.722Z,3.08
2023-01-31T22:05:21.363Z,3.13
2023-01-31T22:07:49.081Z,3.33
2023-01-31T22:10:17.471Z,3.20
2023-01-31T22:12:45.157Z,3.10
2023-01-31T22:15:13.181Z,3.25
2023-01-31T22:17:40.914Z,3.05
2023-01-31T22:20:11.880Z,3.60
2023-01-31T22:22:39.644Z,3.35
2023-01-31T22:25:07.949Z,8.65
2023-01-31T22:27:35.697Z,3.55
2023-01-31T22:30:15.113Z,3.50
2023-01-31T22:32:43.693Z,3.70
2023-01-31T22:35:12.904Z,3.28
2023-01-31T22:37:41.909Z,3.72
2023-01-31T22:40:11.150Z,4.93
2023-01-31T22:42:39.813Z,3.78
2023-01-31T22:45:08.659Z,4.32
2023-01-31T22:47:36.280Z,3.80
2023-01-31T22:50:04.978Z,3.42
2023-01-31T22:52:34.095Z,3.72
2023-01-31T22:55:01.750Z,3.67
2023-01-31T22:57:29.524Z,3.63
2023-01-31T22:59:57.619Z,4.15
2023-01-31T23:02:25.343Z,3.30
2023-01-31T23:04:53.047Z,3.58
2023-01-31T23:07:20.789Z,4.25
2023-01-31T23:09:49.877Z,3.15
2023-01-31T23:12:17.527Z,4.60
2023-01-31T23:14:45.944Z,3.95
2023-01-31T23:17:31.278Z,3.88
2023-01-31T23:19:58.970Z,5.60
2023-01-31T23:22:26.616Z,2.75
2023-01-31T23:24:55.631Z,4.25
2023-01-31T23:27:23.346Z,4.07
2023-01-31T23:29:51.083Z,4.20
2023-01-31T23:32:18.795Z,4.38
2023-01-31T23:34:46.480Z,4.28
2023-01-31T23:37:14.240Z,3.55
2023-01-31T23:39:42.212Z,4.97
2023-01-31T23:42:11.328Z,4.18
2023-01-31T23:44:38.990Z,4.30
2023-01-31T23:47:06.735Z,4.55
2023-01-31T23:49:34.554Z,4.20
2023-01-31T23:52:02.203Z,3.88
2023-01-31T23:54:29.982Z,4.20
2023-01-31T23:56:57.886Z,5.07
2023-01-31T23:59:26.982Z,4.95
